createdAt,value
2019-04-30T00:01:55.916Z,9.00
2019-04-30T00:04:37.237Z,9.10
2019-04-30T00:07:00.704Z,9.10
2019-04-30T00:09:30.119Z,9.20
2019-04-30T00:12:01.303Z,9.20
2019-04-30T00:14:36.861Z,9.20
2019-04-30T00:17:01.359Z,9.20
2019-04-30T00:19:30.085Z,9.20
2019-04-30T00:22:00.497Z,9.40
2019-04-30T00:24:29.041Z,9.40
2019-04-30T00:26:57.703Z,9.50
2019-04-30T00:29:30.464Z,9.60
2019-04-30T00:31:59.300Z,9.60
2019-04-30T00:34:31.012Z,9.70
2019-04-30T00:36:57.795Z,9.70
2019-04-30T00:39:27.309Z,9.80
2019-04-30T00:41:56.739Z,9.80
2019-04-30T00:44:28.295Z,9.90
2019-04-30T00:46:55.995Z,9.90
2019-04-30T00:49:26.618Z,9.90
2019-04-30T00:51:58.141Z,9.90
2019-04-30T00:54:27.947Z,10.00
2019-04-30T00:56:57.445Z,10.00
2019-04-30T00:59:26.135Z,10.00
2019-04-30T01:02:31.704Z,10.00
2019-04-30T01:05:00.158Z,10.00
2019-04-30T01:07:27.998Z,10.00
2019-04-30T01:09:56.651Z,10.00
2019-04-30T01:12:31.115Z,10.00
2019-04-30T01:14:55.623Z,10.00
2019-04-30T01:17:24.271Z,9.90
2019-04-30T01:19:54.531Z,9.90
2019-04-30T01:22:28.152Z,9.90
2019-04-30T01:24:53.799Z,9.90
2019-04-30T01:27:22.535Z,9.90
2019-04-30T01:29:51.593Z,10.00
2019-04-30T01:32:21.080Z,10.00
2019-04-30T01:34:53.758Z,10.00
2019-04-30T01:37:24.943Z,10.00
2019-04-30T01:39:50.737Z,10.00
2019-04-30T01:42:19.571Z,10.00
2019-04-30T01:44:53.624Z,10.10
2019-04-30T01:47:21.507Z,10.10
2019-04-30T01:49:49.594Z,10.10
2019-04-30T01:52:19.345Z,10.10
2019-04-30T01:54:49.069Z,10.10
2019-04-30T01:57:45.339Z,10.20
2019-04-30T02:00:19.560Z,10.20
2019-04-30T02:02:49.522Z,10.20
2019-04-30T02:05:18.873Z,10.10
2019-04-30T02:07:48.744Z,10.20
2019-04-30T02:10:18.644Z,10.20
2019-04-30T02:12:49.311Z,10.20
2019-04-30T02:15:19.225Z,10.20
2019-04-30T02:17:50.246Z,10.20
2019-04-30T02:20:18.634Z,10.20
2019-04-30T02:22:48.607Z,10.30
2019-04-30T02:25:19.376Z,10.30
2019-04-30T02:27:48.942Z,10.40
2019-04-30T02:30:20.794Z,10.40
2019-04-30T02:32:52.591Z,10.40
2019-04-30T02:35:40.496Z,10.40
2019-04-30T02:38:21.786Z,10.40
2019-04-30T02:40:51.151Z,10.40
2019-04-30T02:43:20.808Z,10.40
2019-04-30T02:45:50.037Z,10.40
2019-04-30T02:48:19.648Z,10.40
2019-04-30T02:50:49.290Z,10.40
2019-04-30T02:53:46.961Z,10.40
2019-04-30T02:56:15.721Z,10.40
2019-04-30T02:58:44.501Z,10.40
2019-04-30T03:01:13.190Z,10.40
2019-04-30T03:03:42.677Z,10.50
2019-04-30T03:06:11.694Z,10.40
2019-04-30T03:08:40.499Z,10.50
2019-04-30T03:11:09.859Z,10.50
2019-04-30T03:13:42.556Z,10.50
2019-04-30T03:16:11.278Z,10.60
2019-04-30T03:19:02.726Z,10.60
2019-04-30T03:21:43.926Z,10.60
2019-04-30T03:24:12.697Z,10.60
2019-04-30T03:26:41.355Z,10.60
2019-04-30T03:29:11.354Z,10.60
2019-04-30T03:31:43.769Z,10.60
2019-04-30T03:34:12.467Z,10.60
2019-04-30T03:36:41.213Z,10.60
2019-04-30T03:39:11.146Z,10.60
2019-04-30T03:41:41.512Z,10.60
2019-04-30T03:44:18.575Z,10.60
2019-04-30T03:46:41.023Z,10.60
2019-04-30T03:49:12.547Z,10.60
2019-04-30T03:51:50.111Z,10.60
2019-04-30T03:54:19.512Z,10.50
2019-04-30T03:56:50.227Z,10.50
2019-04-30T03:59:19.930Z,10.50
2019-04-30T04:02:02.377Z,10.60
2019-04-30T04:04:39.492Z,10.60
2019-04-30T04:07:32.887Z,10.60
2019-04-30T04:10:10.690Z,10.60
2019-04-30T04:12:39.576Z,10.60
2019-04-30T04:15:10.528Z,10.60
2019-04-30T04:17:39.701Z,10.60
2019-04-30T04:20:10.597Z,10.60
2019-04-30T04:22:40.285Z,10.60
2019-04-30T04:25:12.832Z,10.60
2019-04-30T04:27:39.618Z,10.60
2019-04-30T04:30:10.696Z,10.60
2019-04-30T04:32:40.581Z,10.60
2019-04-30T04:35:12.808Z,10.60
2019-04-30T04:37:40.161Z,10.70
2019-04-30T04:40:09.404Z,10.70
2019-04-30T04:42:39.625Z,10.60
2019-04-30T04:45:09.974Z,10.70
2019-04-30T04:47:40.246Z,10.70
2019-04-30T04:50:10.387Z,10.70
2019-04-30T04:52:39.717Z,10.70
2019-04-30T04:55:10.037Z,10.80
2019-04-30T04:57:39.988Z,10.80
2019-04-30T05:00:10.572Z,10.80
2019-04-30T05:02:50.211Z,10.80
2019-04-30T05:05:19.517Z,10.80
2019-04-30T05:07:48.667Z,10.80
2019-04-30T05:10:19.098Z,10.80
2019-04-30T05:12:50.586Z,10.80
2019-04-30T05:15:19.463Z,10.90
2019-04-30T05:17:49.425Z,10.90
2019-04-30T05:20:19.492Z,10.90
2019-04-30T05:22:49.455Z,10.90
2019-04-30T05:25:19.369Z,11.00
2019-04-30T05:27:49.438Z,11.00
2019-04-30T05:30:19.802Z,11.00
2019-04-30T05:32:50.870Z,11.00
2019-04-30T05:35:20.803Z,11.00
2019-04-30T05:37:50.602Z,11.00
2019-04-30T05:40:20.383Z,11.00
2019-04-30T05:42:50.261Z,11.00
2019-04-30T05:45:20.134Z,11.00
2019-04-30T05:47:50.674Z,11.10
2019-04-30T05:50:20.092Z,11.10
2019-04-30T05:52:49.905Z,11.10
2019-04-30T05:55:19.966Z,11.10
2019-04-30T05:57:55.987Z,11.10
2019-04-30T06:00:21.558Z,11.10
2019-04-30T06:02:51.453Z,11.10
2019-04-30T06:05:21.262Z,11.10
2019-04-30T06:07:51.964Z,11.10
2019-04-30T06:10:44.033Z,11.20
2019-04-30T06:13:19.013Z,11.20
2019-04-30T06:16:01.419Z,11.20
2019-04-30T06:18:30.167Z,11.20
2019-04-30T06:20:59.537Z,11.20
2019-04-30T06:23:29.363Z,11.20
2019-04-30T06:26:08.982Z,11.20
2019-04-30T06:28:30.709Z,11.20
2019-04-30T06:30:59.474Z,11.20
2019-04-30T06:33:29.084Z,11.30
2019-04-30T06:35:59.031Z,11.40
2019-04-30T06:38:29.170Z,11.40
2019-04-30T06:40:59.238Z,11.50
2019-04-30T06:43:28.859Z,11.60
2019-04-30T06:45:58.941Z,11.60
2019-04-30T06:48:29.502Z,11.70
2019-04-30T06:50:59.247Z,11.70
2019-04-30T06:53:29.247Z,11.80
2019-04-30T06:55:59.019Z,11.80
2019-04-30T06:58:29.154Z,11.80
2019-04-30T07:00:59.599Z,11.90
2019-04-30T07:03:29.041Z,12.00
2019-04-30T07:05:58.635Z,12.00
2019-04-30T07:08:55.680Z,12.10
2019-04-30T07:11:32.078Z,12.00
2019-04-30T07:14:01.074Z,12.00
2019-04-30T07:16:29.985Z,12.10
2019-04-30T07:18:58.932Z,12.00
2019-04-30T07:21:31.218Z,12.00
2019-04-30T07:23:59.719Z,12.10
2019-04-30T07:26:29.004Z,12.10
2019-04-30T07:29:02.025Z,12.20
2019-04-30T07:31:29.564Z,12.30
2019-04-30T07:33:59.445Z,12.30
2019-04-30T07:36:45.205Z,12.40
2019-04-30T07:39:01.328Z,12.40
2019-04-30T07:41:31.208Z,12.20
2019-04-30T07:44:00.443Z,12.20
2019-04-30T07:46:29.956Z,12.20
2019-04-30T07:48:59.926Z,12.10
2019-04-30T07:51:31.395Z,12.10
2019-04-30T07:53:59.505Z,12.10
2019-04-30T07:56:32.459Z,12.10
2019-04-30T07:59:00.702Z,12.10
2019-04-30T08:01:29.622Z,12.10
2019-04-30T08:04:03.618Z,12.00
2019-04-30T08:06:32.608Z,12.00
2019-04-30T08:09:01.904Z,12.10
2019-04-30T08:11:34.415Z,12.20
2019-04-30T08:14:01.787Z,12.40
2019-04-30T08:16:31.578Z,12.40
2019-04-30T08:19:00.475Z,12.50
2019-04-30T08:21:29.438Z,12.50
2019-04-30T08:23:59.377Z,12.50
2019-04-30T08:26:29.220Z,12.60
2019-04-30T08:28:59.789Z,12.60
2019-04-30T08:31:29.269Z,12.70
2019-04-30T08:34:01.883Z,12.70
2019-04-30T08:36:33.061Z,12.70
2019-04-30T08:39:01.490Z,12.70
2019-04-30T08:41:30.147Z,12.70
2019-04-30T08:43:59.832Z,12.70
2019-04-30T08:46:28.846Z,12.80
2019-04-30T08:48:58.739Z,12.80
2019-04-30T08:51:30.561Z,12.70
2019-04-30T08:54:00.441Z,12.70
2019-04-30T08:56:29.744Z,12.60
2019-04-30T08:58:59.402Z,12.70
2019-04-30T09:01:29.388Z,12.70
2019-04-30T09:03:59.651Z,12.80
2019-04-30T09:06:29.859Z,12.80
2019-04-30T09:09:12.716Z,12.90
2019-04-30T09:11:51.840Z,13.00
2019-04-30T09:14:12.916Z,13.10
2019-04-30T09:16:41.817Z,13.20
2019-04-30T09:19:11.602Z,13.30
2019-04-30T09:21:40.460Z,13.40
2019-04-30T09:24:10.255Z,13.50
2019-04-30T09:26:40.260Z,13.60
2019-04-30T09:29:13.848Z,13.60
2019-04-30T09:31:43.633Z,13.70
2019-04-30T09:34:17.115Z,13.60
2019-04-30T09:36:44.995Z,13.50
2019-04-30T09:39:14.800Z,13.40
2019-04-30T09:41:45.379Z,13.40
2019-04-30T09:44:15.174Z,13.60
2019-04-30T09:46:45.114Z,13.60
2019-04-30T09:49:16.832Z,13.60
2019-04-30T09:51:48.721Z,13.60
2019-04-30T09:54:19.878Z,13.60
2019-04-30T09:56:52.602Z,13.60
2019-04-30T09:59:21.623Z,13.50
2019-04-30T10:01:51.477Z,13.40
2019-04-30T10:04:22.554Z,13.40
2019-04-30T10:06:52.963Z,13.40
2019-04-30T10:09:22.934Z,13.40
2019-04-30T10:12:01.708Z,13.40
2019-04-30T10:14:31.570Z,13.40
2019-04-30T10:17:35.910Z,13.40
2019-04-30T10:20:08.285Z,13.50
2019-04-30T10:22:40.056Z,13.40
2019-04-30T10:25:10.562Z,13.50
2019-04-30T10:27:40.463Z,13.50
2019-04-30T10:30:13.575Z,13.50
2019-04-30T10:32:43.507Z,13.50
2019-04-30T10:35:12.473Z,13.60
2019-04-30T10:37:41.258Z,13.60
2019-04-30T10:40:11.152Z,13.70
2019-04-30T10:42:40.949Z,13.70
2019-04-30T10:45:10.933Z,13.80
2019-04-30T10:47:40.943Z,14.00
2019-04-30T10:50:10.747Z,13.90
2019-04-30T10:52:39.519Z,14.00
2019-04-30T10:55:09.370Z,14.00
2019-04-30T10:57:39.659Z,14.00
2019-04-30T11:00:11.191Z,13.80
2019-04-30T11:02:39.909Z,13.70
2019-04-30T11:05:11.238Z,13.80
2019-04-30T11:07:40.036Z,13.90
2019-04-30T11:10:09.070Z,13.90
2019-04-30T11:12:39.147Z,13.80
2019-04-30T11:15:08.304Z,13.90
2019-04-30T11:17:37.151Z,14.00
2019-04-30T11:20:07.651Z,14.00
2019-04-30T11:22:36.790Z,14.00
2019-04-30T11:25:06.012Z,14.00
2019-04-30T11:27:35.602Z,14.00
2019-04-30T11:30:17.670Z,14.10
2019-04-30T11:32:36.327Z,14.20
2019-04-30T11:35:05.460Z,14.30
2019-04-30T11:37:34.123Z,14.50
2019-04-30T11:40:04.141Z,14.60
2019-04-30T11:42:32.940Z,14.70
2019-04-30T11:45:01.607Z,14.80
2019-04-30T11:47:35.383Z,14.80
2019-04-30T11:50:05.465Z,14.80
2019-04-30T11:52:34.340Z,14.80
2019-04-30T11:55:03.363Z,14.90
2019-04-30T11:57:32.691Z,15.00
2019-04-30T12:00:01.463Z,15.00
2019-04-30T12:02:35.485Z,15.10
2019-04-30T12:05:05.297Z,15.10
2019-04-30T12:07:53.353Z,15.20
2019-04-30T12:10:44.388Z,15.10
2019-04-30T12:13:30.519Z,15.00
2019-04-30T12:15:59.214Z,14.80
2019-04-30T12:18:27.985Z,14.80
2019-04-30T12:20:58.233Z,14.90
2019-04-30T12:23:27.999Z,15.00
2019-04-30T12:26:01.046Z,15.10
2019-04-30T12:28:30.183Z,15.30
2019-04-30T12:30:59.030Z,15.50
2019-04-30T12:33:30.437Z,15.60
2019-04-30T12:35:59.699Z,15.60
2019-04-30T12:38:29.835Z,15.90
2019-04-30T12:40:58.914Z,16.20
2019-04-30T12:43:27.697Z,16.40
2019-04-30T12:46:02.676Z,16.50
2019-04-30T12:48:45.979Z,16.70
2019-04-30T12:51:27.101Z,16.70
2019-04-30T12:54:00.184Z,17.10
2019-04-30T12:56:36.927Z,17.60
2019-04-30T12:59:06.883Z,17.60
2019-04-30T13:01:35.619Z,17.50
2019-04-30T13:04:04.499Z,17.40
2019-04-30T13:06:33.791Z,17.40
2019-04-30T13:09:04.887Z,17.40
2019-04-30T13:11:34.013Z,17.30
2019-04-30T13:14:05.345Z,17.30
2019-04-30T13:16:34.479Z,17.40
2019-04-30T13:19:05.418Z,17.40
2019-04-30T13:21:36.689Z,17.50
2019-04-30T13:24:06.214Z,17.60
2019-04-30T13:26:35.085Z,17.70
2019-04-30T13:29:13.363Z,17.90
2019-04-30T13:31:42.285Z,17.90
2019-04-30T13:34:49.553Z,17.90
2019-04-30T13:37:19.173Z,17.90
2019-04-30T13:40:20.115Z,17.80
2019-04-30T13:42:49.016Z,17.70
2019-04-30T13:45:18.648Z,17.70
2019-04-30T13:47:50.634Z,17.60
2019-04-30T13:50:21.575Z,17.50
2019-04-30T13:52:50.698Z,17.50
2019-04-30T13:55:19.497Z,17.30
2019-04-30T13:57:48.282Z,17.10
2019-04-30T14:00:21.848Z,17.00
2019-04-30T14:02:56.908Z,16.90
2019-04-30T14:05:25.980Z,17.00
2019-04-30T14:08:13.792Z,17.00
2019-04-30T14:10:44.448Z,17.20
2019-04-30T14:13:13.240Z,17.20
2019-04-30T14:15:54.264Z,17.10
2019-04-30T14:18:30.892Z,16.90
2019-04-30T14:20:54.409Z,16.90
2019-04-30T14:23:42.158Z,16.80
2019-04-30T14:26:10.910Z,16.80
2019-04-30T14:28:41.346Z,16.80
2019-04-30T14:31:10.363Z,16.80
2019-04-30T14:33:40.130Z,16.80
2019-04-30T14:36:08.948Z,16.60
2019-04-30T14:38:40.488Z,16.60
2019-04-30T14:41:08.608Z,16.60
2019-04-30T14:43:45.092Z,16.60
2019-04-30T14:46:33.687Z,16.50
2019-04-30T14:49:34.523Z,16.60
2019-04-30T14:52:03.794Z,16.60
2019-04-30T14:54:51.595Z,16.50
2019-04-30T14:57:31.404Z,16.30
2019-04-30T15:00:18.108Z,16.30
2019-04-30T15:02:51.160Z,16.10
2019-04-30T15:05:19.995Z,16.20
2019-04-30T15:07:48.853Z,16.20
2019-04-30T15:10:17.739Z,16.20
2019-04-30T15:12:46.534Z,16.20
2019-04-30T15:15:15.314Z,16.40
2019-04-30T15:17:51.866Z,16.60
2019-04-30T15:20:21.163Z,16.50
2019-04-30T15:23:08.791Z,16.50
2019-04-30T15:25:38.806Z,16.60
2019-04-30T15:28:09.728Z,16.60
2019-04-30T15:30:38.863Z,16.70
2019-04-30T15:33:17.438Z,16.70
2019-04-30T15:35:46.192Z,16.60
2019-04-30T15:38:16.485Z,16.50
2019-04-30T15:40:45.255Z,16.50
2019-04-30T15:43:53.399Z,16.50
2019-04-30T15:46:36.063Z,16.60
2019-04-30T15:49:04.945Z,16.50
2019-04-30T15:51:33.801Z,16.40
2019-04-30T15:54:02.548Z,16.30
2019-04-30T15:56:36.965Z,16.30
2019-04-30T15:59:28.909Z,16.30
2019-04-30T16:02:03.663Z,16.30
2019-04-30T16:04:59.878Z,16.10
2019-04-30T16:07:29.545Z,16.00
2019-04-30T16:10:18.567Z,15.70
2019-04-30T16:12:53.246Z,15.60
2019-04-30T16:15:22.022Z,15.60
2019-04-30T16:18:10.247Z,15.50
2019-04-30T16:20:39.281Z,15.40
2019-04-30T16:23:09.167Z,15.30
2019-04-30T16:25:39.075Z,15.20
2019-04-30T16:28:10.156Z,15.20
2019-04-30T16:30:39.760Z,15.20
2019-04-30T16:33:09.496Z,15.30
2019-04-30T16:35:38.358Z,15.30
2019-04-30T16:38:07.146Z,15.30
2019-04-30T16:40:36.038Z,15.30
2019-04-30T16:43:06.057Z,15.20
2019-04-30T16:45:34.894Z,15.20
2019-04-30T16:50:43.635Z,15.20
2019-04-30T16:53:12.323Z,15.00
2019-04-30T16:55:41.130Z,14.80
2019-04-30T16:58:09.903Z,14.60
2019-04-30T17:00:39.331Z,14.50
2019-04-30T17:03:14.841Z,14.40
2019-04-30T17:05:51.475Z,14.40
2019-04-30T17:08:34.366Z,14.30
2019-04-30T17:11:09.455Z,14.20
2019-04-30T17:13:52.149Z,14.10
2019-04-30T17:16:22.178Z,14.10
2019-04-30T17:18:50.858Z,14.00
2019-04-30T17:21:19.805Z,14.10
2019-04-30T17:23:50.854Z,14.00
2019-04-30T17:26:19.213Z,14.00
2019-04-30T17:28:49.769Z,14.00
2019-04-30T17:31:18.412Z,14.00
2019-04-30T17:33:47.475Z,14.00
2019-04-30T17:36:16.230Z,14.00
2019-04-30T17:38:45.018Z,14.00
2019-04-30T17:41:14.227Z,13.90
2019-04-30T17:43:43.294Z,13.90
2019-04-30T17:46:12.064Z,13.90
2019-04-30T17:48:40.750Z,13.70
2019-04-30T17:51:09.598Z,13.70
2019-04-30T17:53:58.760Z,13.70
2019-04-30T17:56:27.925Z,13.60
2019-04-30T17:58:56.592Z,13.60
2019-04-30T18:01:25.363Z,13.50
2019-04-30T18:03:54.061Z,13.40
2019-04-30T18:06:22.838Z,13.40
2019-04-30T18:08:51.608Z,13.30
2019-04-30T18:11:20.329Z,13.30
2019-04-30T18:13:50.720Z,13.20
2019-04-30T18:16:19.686Z,13.20
2019-04-30T18:19:18.607Z,13.10
2019-04-30T18:22:15.198Z,13.10
2019-04-30T18:24:55.676Z,13.00
2019-04-30T18:27:45.968Z,12.90
2019-04-30T18:30:13.457Z,12.90
2019-04-30T18:33:01.289Z,12.80
2019-04-30T18:35:30.885Z,12.80
2019-04-30T18:37:59.592Z,12.70
2019-04-30T18:40:29.581Z,12.70
2019-04-30T18:42:59.467Z,12.70
2019-04-30T18:45:28.844Z,12.60
2019-04-30T18:47:59.561Z,12.60
2019-04-30T18:50:28.180Z,12.50
2019-04-30T18:52:58.808Z,12.40
2019-04-30T18:55:27.560Z,12.30
2019-04-30T18:57:59.161Z,12.30
2019-04-30T19:00:34.260Z,12.20
2019-04-30T19:03:03.744Z,12.20
2019-04-30T19:05:33.453Z,12.10
2019-04-30T19:08:07.040Z,12.00
2019-04-30T19:10:53.561Z,12.00
2019-04-30T19:13:34.352Z,11.90
2019-04-30T19:16:34.098Z,11.90
2019-04-30T19:19:13.048Z,11.80
2019-04-30T19:21:41.890Z,11.80
2019-04-30T19:24:10.659Z,11.70
2019-04-30T19:26:39.760Z,11.60
2019-04-30T19:29:08.498Z,11.60
2019-04-30T19:31:39.359Z,11.50
2019-04-30T19:34:09.703Z,11.50
2019-04-30T19:36:40.548Z,11.50
2019-04-30T19:39:09.800Z,11.50
2019-04-30T19:41:38.722Z,11.40
2019-04-30T19:44:09.213Z,11.40
2019-04-30T19:46:38.051Z,11.30
2019-04-30T19:49:09.707Z,11.30
2019-04-30T19:51:40.076Z,11.20
2019-04-30T19:54:09.073Z,11.10
2019-04-30T19:56:40.942Z,11.10
2019-04-30T19:59:10.026Z,11.00
2019-04-30T20:01:39.163Z,11.00
2019-04-30T20:04:09.848Z,11.00
2019-04-30T20:06:38.687Z,10.90
2019-04-30T20:09:08.998Z,10.90
2019-04-30T20:11:39.818Z,10.80
2019-04-30T20:14:10.328Z,10.80
2019-04-30T20:16:40.256Z,10.70
2019-04-30T20:19:09.271Z,10.70
2019-04-30T20:21:48.057Z,10.70
2019-04-30T20:24:08.376Z,10.60
2019-04-30T20:26:37.148Z,10.60
2019-04-30T20:29:05.859Z,10.50
2019-04-30T20:31:34.621Z,10.50
2019-04-30T20:34:03.374Z,10.40
2019-04-30T20:36:32.067Z,10.40
2019-04-30T20:39:26.147Z,10.40
2019-04-30T20:41:55.311Z,10.40
2019-04-30T20:44:24.060Z,10.30
2019-04-30T20:46:54.965Z,10.30
2019-04-30T20:49:23.922Z,10.30
2019-04-30T20:51:55.797Z,10.30
2019-04-30T20:54:23.479Z,10.30
2019-04-30T20:56:52.152Z,10.20
2019-04-30T20:59:21.258Z,10.20
2019-04-30T21:01:49.919Z,10.20
2019-04-30T21:04:20.787Z,10.10
2019-04-30T21:06:49.635Z,10.10
2019-04-30T21:09:18.594Z,10.10
2019-04-30T21:11:48.971Z,10.00
2019-04-30T21:14:19.163Z,10.00
2019-04-30T21:16:48.228Z,10.00
2019-04-30T21:19:17.106Z,10.00
2019-04-30T21:21:45.910Z,10.00
2019-04-30T21:24:14.591Z,9.90
2019-04-30T21:26:43.380Z,9.90
2019-04-30T21:29:15.624Z,9.90
2019-04-30T21:32:14.110Z,9.90
2019-04-30T21:34:47.147Z,9.90
2019-04-30T21:37:15.917Z,9.80
2019-04-30T21:39:44.610Z,9.80
2019-04-30T21:42:13.271Z,9.80
2019-04-30T21:44:45.434Z,9.80
2019-04-30T21:47:15.449Z,9.70
2019-04-30T21:49:44.313Z,9.70
2019-04-30T21:52:12.970Z,9.70
2019-04-30T21:54:41.655Z,9.60
2019-04-30T21:57:10.387Z,9.60
2019-04-30T21:59:39.082Z,9.60
2019-04-30T22:02:08.454Z,9.50
2019-04-30T22:04:37.168Z,9.50
2019-04-30T22:07:06.388Z,9.50
2019-04-30T22:09:35.142Z,9.40
2019-04-30T22:12:06.878Z,9.40
2019-04-30T22:14:36.794Z,9.40
2019-04-30T22:17:05.566Z,9.30
2019-04-30T22:19:35.688Z,9.30
2019-04-30T22:22:05.458Z,9.30
2019-04-30T22:24:34.212Z,9.30
2019-04-30T22:27:02.979Z,9.20
2019-04-30T22:29:39.457Z,9.20
2019-04-30T22:32:02.347Z,9.20
2019-04-30T22:34:31.100Z,9.20
2019-04-30T22:36:59.763Z,9.20
2019-04-30T22:39:53.643Z,9.20
2019-04-30T22:42:31.123Z,9.20
2019-04-30T22:45:00.652Z,9.10
2019-04-30T22:47:29.758Z,9.10
2019-04-30T22:49:58.443Z,9.00
2019-04-30T22:52:27.229Z,9.00
2019-04-30T22:54:55.896Z,9.00
2019-04-30T22:57:24.555Z,8.90
2019-04-30T22:59:54.331Z,8.90
2019-04-30T23:02:39.501Z,8.90
2019-04-30T23:05:09.279Z,8.90
2019-04-30T23:07:38.022Z,8.90
2019-04-30T23:10:19.608Z,8.90
2019-04-30T23:12:49.379Z,8.90
2019-04-30T23:15:21.175Z,8.80
2019-04-30T23:17:51.360Z,8.80
2019-04-30T23:20:23.475Z,8.70
2019-04-30T23:22:53.311Z,8.70
2019-04-30T23:25:22.127Z,8.70
2019-04-30T23:27:50.785Z,8.70
2019-04-30T23:30:19.438Z,8.70
2019-04-30T23:32:48.175Z,8.70
2019-04-30T23:35:18.763Z,8.60
2019-04-30T23:37:47.493Z,8.60
2019-04-30T23:40:23.303Z,8.60
2019-04-30T23:42:52.171Z,8.50
2019-04-30T23:45:21.010Z,8.50
2019-04-30T23:47:49.723Z,8.50
2019-04-30T23:50:18.465Z,8.50
2019-04-30T23:52:47.169Z,8.50
2019-04-30T23:55:15.932Z,8.50
2019-04-30T23:57:44.585Z,8.50
